sensor_id;sensor_type;location;lat;lon;timestamp;temperature;humidity
1355;DHT22;671;48.972;9.276;2023-07-02T00:02:18;18.50;99.90
1355;DHT22;671;48.972;9.276;2023-07-02T00:04:45;18.40;99.90
1355;DHT22;671;48.972;9.276;2023-07-02T00:07:12;18.30;99.90
1355;DHT22;671;48.972;9.276;2023-07-02T00:09:39;18.20;99.90
1355;DHT22;671;48.972;9.276;2023-07-02T00:12:05;18.10;99.90
1355;DHT22;671;48.972;9.276;2023-07-02T00:14:32;18.00;99.90
1355;DHT22;671;48.972;9.276;2023-07-02T00:16:59;18.00;99.90
1355;DHT22;671;48.972;9.276;2023-07-02T00:19:25;17.90;99.90
1355;DHT22;671;48.972;9.276;2023-07-02T00:21:52;17.80;99.90
1355;DHT22;671;48.972;9.276;2023-07-02T00:24:22;17.70;99.90
1355;DHT22;671;48.972;9.276;2023-07-02T00:26:48;17.70;99.90
1355;DHT22;671;48.972;9.276;2023-07-02T00:29:15;17.60;99.90
1355;DHT22;671;48.972;9.276;2023-07-02T00:31:41;17.60;99.90
1355;DHT22;671;48.972;9.276;2023-07-02T00:34:08;17.50;99.90
1355;DHT22;671;48.972;9.276;2023-07-02T00:36:34;17.50;99.90
1355;DHT22;671;48.972;9.276;2023-07-02T00:39:01;17.40;99.90
1355;DHT22;671;48.972;9.276;2023-07-02T00:41:27;17.40;99.90
1355;DHT22;671;48.972;9.276;2023-07-02T00:43:54;17.40;99.90
1355;DHT22;671;48.972;9.276;2023-07-02T00:46:23;17.30;99.90
1355;DHT22;671;48.972;9.276;2023-07-02T00:48:53;17.20;99.90
1355;DHT22;671;48.972;9.276;2023-07-02T00:51:22;17.20;99.90
1355;DHT22;671;48.972;9.276;2023-07-02T00:53:50;17.20;99.90
1355;DHT22;671;48.972;9.276;2023-07-02T00:56:17;17.20;99.90
1355;DHT22;671;48.972;9.276;2023-07-02T00:58:47;17.20;99.90
1355;DHT22;671;48.972;9.276;2023-07-02T01:01:15;17.20;99.90
1355;DHT22;671;48.972;9.276;2023-07-02T01:04:01;17.10;99.90
1355;DHT22;671;48.972;9.276;2023-07-02T01:08:57;17.10;99.90
1355;DHT22;671;48.972;9.276;2023-07-02T01:11:38;17.10;99.90
1355;DHT22;671;48.972;9.276;2023-07-02T01:16:36;17.00;99.90
1355;DHT22;671;48.972;9.276;2023-07-02T01:19:05;17.00;99.90
1355;DHT22;671;48.972;9.276;2023-07-02T01:21:34;17.00;99.90
1355;DHT22;671;48.972;9.276;2023-07-02T01:24:01;16.90;99.90
1355;DHT22;671;48.972;9.276;2023-07-02T01:26:30;16.90;99.90
1355;DHT22;671;48.972;9.276;2023-07-02T01:28:57;16.90;99.90
1355;DHT22;671;48.972;9.276;2023-07-02T01:31:23;16.90;99.90
1355;DHT22;671;48.972;9.276;2023-07-02T01:33:51;16.90;99.90
1355;DHT22;671;48.972;9.276;2023-07-02T01:36:18;17.00;99.90
1355;DHT22;671;48.972;9.276;2023-07-02T01:38:45;16.90;99.90
1355;DHT22;671;48.972;9.276;2023-07-02T01:41:12;17.00;99.90
1355;DHT22;671;48.972;9.276;2023-07-02T01:43:38;17.00;99.90
1355;DHT22;671;48.972;9.276;2023-07-02T01:46:04;17.00;99.90
1355;DHT22;671;48.972;9.276;2023-07-02T01:48:31;17.10;99.90
1355;DHT22;671;48.972;9.276;2023-07-02T01:50:57;17.10;99.90
1355;DHT22;671;48.972;9.276;2023-07-02T01:53:24;17.20;99.90
1355;DHT22;671;48.972;9.276;2023-07-02T01:55:50;17.20;99.90
1355;DHT22;671;48.972;9.276;2023-07-02T01:58:17;17.20;99.90
1355;DHT22;671;48.972;9.276;2023-07-02T02:00:43;17.20;99.90
1355;DHT22;671;48.972;9.276;2023-07-02T02:03:10;17.20;99.90
1355;DHT22;671;48.972;9.276;2023-07-02T02:05:37;17.20;99.90
1355;DHT22;671;48.972;9.276;2023-07-02T02:08:03;17.20;99.90
1355;DHT22;671;48.972;9.276;2023-07-02T02:10:30;17.20;99.90
1355;DHT22;671;48.972;9.276;2023-07-02T02:12:56;17.20;99.90
1355;DHT22;671;48.972;9.276;2023-07-02T02:15:23;17.20;99.90
1355;DHT22;671;48.972;9.276;2023-07-02T02:17:49;17.20;99.90
1355;DHT22;671;48.972;9.276;2023-07-02T02:20:17;17.20;99.90
1355;DHT22;671;48.972;9.276;2023-07-02T02:22:43;17.20;99.90
1355;DHT22;671;48.972;9.276;2023-07-02T02:25:10;17.20;99.90
1355;DHT22;671;48.972;9.276;2023-07-02T02:27:36;17.30;99.90
1355;DHT22;671;48.972;9.276;2023-07-02T02:30:04;17.30;99.90
1355;DHT22;671;48.972;9.276;2023-07-02T02:32:30;17.40;99.90
1355;DHT22;671;48.972;9.276;2023-07-02T02:34:57;17.40;99.90
1355;DHT22;671;48.972;9.276;2023-07-02T02:37:23;17.50;99.90
1355;DHT22;671;48.972;9.276;2023-07-02T02:39:50;17.50;99.90
1355;DHT22;671;48.972;9.276;2023-07-02T02:42:16;17.50;99.90
1355;DHT22;671;48.972;9.276;2023-07-02T02:44:43;17.60;99.90
1355;DHT22;671;48.972;9.276;2023-07-02T02:47:10;17.60;99.90
1355;DHT22;671;48.972;9.276;2023-07-02T02:49:37;17.60;99.90
1355;DHT22;671;48.972;9.276;2023-07-02T02:52:05;17.60;99.90
1355;DHT22;671;48.972;9.276;2023-07-02T02:54:31;17.70;99.90
1355;DHT22;671;48.972;9.276;2023-07-02T02:56:58;17.70;99.90
1355;DHT22;671;48.972;9.276;2023-07-02T02:59:24;17.70;99.90
1355;DHT22;671;48.972;9.276;2023-07-02T03:01:51;17.80;99.90
1355;DHT22;671;48.972;9.276;2023-07-02T03:04:17;17.70;99.90
1355;DHT22;671;48.972;9.276;2023-07-02T03:06:44;17.70;99.90
1355;DHT22;671;48.972;9.276;2023-07-02T03:09:12;17.60;99.90
1355;DHT22;671;48.972;9.276;2023-07-02T03:11:38;17.50;99.90
1355;DHT22;671;48.972;9.276;2023-07-02T03:14:05;17.40;99.90
1355;DHT22;671;48.972;9.276;2023-07-02T03:16:31;17.20;99.90
1355;DHT22;671;48.972;9.276;2023-07-02T03:18:59;17.20;99.90
1355;DHT22;671;48.972;9.276;2023-07-02T03:21:26;17.20;99.90
1355;DHT22;671;48.972;9.276;2023-07-02T03:23:52;17.20;99.90
1355;DHT22;671;48.972;9.276;2023-07-02T03:26:19;17.20;99.90
1355;DHT22;671;48.972;9.276;2023-07-02T03:28:46;17.20;99.90
1355;DHT22;671;48.972;9.276;2023-07-02T03:31:13;17.20;99.90
1355;DHT22;671;48.972;9.276;2023-07-02T03:33:39;17.20;99.90
1355;DHT22;671;48.972;9.276;2023-07-02T03:36:06;17.20;99.90
1355;DHT22;671;48.972;9.276;2023-07-02T03:38:33;17.20;99.90
1355;DHT22;671;48.972;9.276;2023-07-02T03:40:59;17.10;99.90
1355;DHT22;671;48.972;9.276;2023-07-02T03:43:26;17.10;99.90
1355;DHT22;671;48.972;9.276;2023-07-02T03:45:52;17.10;99.90
1355;DHT22;671;48.972;9.276;2023-07-02T03:48:19;17.20;99.90
1355;DHT22;671;48.972;9.276;2023-07-02T03:50:45;17.20;99.90
1355;DHT22;671;48.972;9.276;2023-07-02T03:53:12;17.20;99.90
1355;DHT22;671;48.972;9.276;2023-07-02T03:55:38;17.20;99.90
1355;DHT22;671;48.972;9.276;2023-07-02T03:58:06;17.20;99.90
1355;DHT22;671;48.972;9.276;2023-07-02T04:00:33;17.20;99.90
1355;DHT22;671;48.972;9.276;2023-07-02T04:02:59;17.20;99.90
1355;DHT22;671;48.972;9.276;2023-07-02T04:05:25;17.20;99.90
1355;DHT22;671;48.972;9.276;2023-07-02T04:07:52;17.10;99.90
1355;DHT22;671;48.972;9.276;2023-07-02T04:10:18;17.10;99.90
1355;DHT22;671;48.972;9.276;2023-07-02T04:12:45;17.10;99.90
1355;DHT22;671;48.972;9.276;2023-07-02T04:15:11;17.00;99.90
1355;DHT22;671;48.972;9.276;2023-07-02T04:17:38;17.00;99.90
1355;DHT22;671;48.972;9.276;2023-07-02T04:20:05;17.00;99.90
1355;DHT22;671;48.972;9.276;2023-07-02T04:22:32;17.00;99.90
1355;DHT22;671;48.972;9.276;2023-07-02T04:24:59;17.10;99.90
1355;DHT22;671;48.972;9.276;2023-07-02T04:27:25;17.10;99.90
1355;DHT22;671;48.972;9.276;2023-07-02T04:29:53;17.20;99.90
1355;DHT22;671;48.972;9.276;2023-07-02T04:32:21;17.20;99.90
1355;DHT22;671;48.972;9.276;2023-07-02T04:34:47;17.30;99.90
1355;DHT22;671;48.972;9.276;2023-07-02T04:37:14;17.30;99.90
1355;DHT22;671;48.972;9.276;2023-07-02T04:39:41;17.30;99.90
1355;DHT22;671;48.972;9.276;2023-07-02T04:42:08;17.40;99.90
1355;DHT22;671;48.972;9.276;2023-07-02T04:44:36;17.40;99.90
1355;DHT22;671;48.972;9.276;2023-07-02T04:47:02;17.50;99.90
1355;DHT22;671;48.972;9.276;2023-07-02T04:49:29;17.60;99.90
1355;DHT22;671;48.972;9.276;2023-07-02T04:51:56;17.70;99.90
1355;DHT22;671;48.972;9.276;2023-07-02T04:54:22;17.70;99.90
1355;DHT22;671;48.972;9.276;2023-07-02T04:56:49;17.80;99.90
1355;DHT22;671;48.972;9.276;2023-07-02T04:59:16;17.80;99.90
1355;DHT22;671;48.972;9.276;2023-07-02T05:01:43;17.90;99.90
1355;DHT22;671;48.972;9.276;2023-07-02T05:04:10;18.00;99.90
1355;DHT22;671;48.972;9.276;2023-07-02T05:06:40;18.20;99.90
1355;DHT22;671;48.972;9.276;2023-07-02T05:09:06;18.30;99.90
1355;DHT22;671;48.972;9.276;2023-07-02T05:11:33;18.40;99.90
1355;DHT22;671;48.972;9.276;2023-07-02T05:13:59;18.40;99.90
1355;DHT22;671;48.972;9.276;2023-07-02T05:16:26;18.50;99.90
1355;DHT22;671;48.972;9.276;2023-07-02T05:18:52;18.60;99.90
1355;DHT22;671;48.972;9.276;2023-07-02T05:21:19;19.50;99.90
1355;DHT22;671;48.972;9.276;2023-07-02T05:23:47;19.40;99.90
1355;DHT22;671;48.972;9.276;2023-07-02T05:26:14;19.90;99.90
1355;DHT22;671;48.972;9.276;2023-07-02T05:28:41;20.20;99.90
1355;DHT22;671;48.972;9.276;2023-07-02T05:31:07;19.80;99.90
1355;DHT22;671;48.972;9.276;2023-07-02T05:33:34;19.50;99.90
1355;DHT22;671;48.972;9.276;2023-07-02T05:36:00;19.30;99.90
1355;DHT22;671;48.972;9.276;2023-07-02T05:38:27;19.30;99.90
1355;DHT22;671;48.972;9.276;2023-07-02T05:40:53;19.10;99.90
1355;DHT22;671;48.972;9.276;2023-07-02T05:43:20;19.10;99.90
1355;DHT22;671;48.972;9.276;2023-07-02T05:45:46;19.00;99.90
1355;DHT22;671;48.972;9.276;2023-07-02T05:48:13;19.00;99.90
1355;DHT22;671;48.972;9.276;2023-07-02T05:50:39;18.90;99.90
1355;DHT22;671;48.972;9.276;2023-07-02T05:53:06;18.90;99.90
1355;DHT22;671;48.972;9.276;2023-07-02T05:55:32;18.90;99.90
1355;DHT22;671;48.972;9.276;2023-07-02T05:57:59;18.90;99.90
1355;DHT22;671;48.972;9.276;2023-07-02T06:00:28;19.10;99.90
1355;DHT22;671;48.972;9.276;2023-07-02T06:02:54;19.30;99.90
1355;DHT22;671;48.972;9.276;2023-07-02T06:05:21;19.40;99.90
1355;DHT22;671;48.972;9.276;2023-07-02T06:07:47;19.50;99.90
1355;DHT22;671;48.972;9.276;2023-07-02T06:10:14;19.70;99.90
1355;DHT22;671;48.972;9.276;2023-07-02T06:12:40;19.60;99.90
1355;DHT22;671;48.972;9.276;2023-07-02T06:15:08;19.70;99.90
1355;DHT22;671;48.972;9.276;2023-07-02T06:17:35;19.60;99.90
1355;DHT22;671;48.972;9.276;2023-07-02T06:20:03;19.60;99.90
1355;DHT22;671;48.972;9.276;2023-07-02T06:22:31;19.60;99.90
1355;DHT22;671;48.972;9.276;2023-07-02T06:24:57;19.60;99.90
1355;DHT22;671;48.972;9.276;2023-07-02T06:27:24;19.70;99.90
1355;DHT22;671;48.972;9.276;2023-07-02T06:29:50;19.80;99.90
1355;DHT22;671;48.972;9.276;2023-07-02T06:32:17;19.80;99.90
1355;DHT22;671;48.972;9.276;2023-07-02T06:34:45;19.70;99.90
1355;DHT22;671;48.972;9.276;2023-07-02T06:37:12;19.80;99.90
1355;DHT22;671;48.972;9.276;2023-07-02T06:39:38;19.80;99.90
1355;DHT22;671;48.972;9.276;2023-07-02T06:42:05;19.80;99.90
1355;DHT22;671;48.972;9.276;2023-07-02T06:44:31;19.80;99.90
1355;DHT22;671;48.972;9.276;2023-07-02T06:46:58;19.70;99.90
1355;DHT22;671;48.972;9.276;2023-07-02T06:49:24;19.70;99.90
1355;DHT22;671;48.972;9.276;2023-07-02T06:51:51;19.90;99.90
1355;DHT22;671;48.972;9.276;2023-07-02T06:54:17;19.90;99.90
1355;DHT22;671;48.972;9.276;2023-07-02T06:56:44;19.90;99.90
1355;DHT22;671;48.972;9.276;2023-07-02T06:59:10;19.90;99.90
1355;DHT22;671;48.972;9.276;2023-07-02T07:01:37;19.90;99.90
1355;DHT22;671;48.972;9.276;2023-07-02T07:04:03;19.90;99.90
1355;DHT22;671;48.972;9.276;2023-07-02T07:06:30;19.90;99.90
1355;DHT22;671;48.972;9.276;2023-07-02T07:08:56;19.90;99.90
1355;DHT22;671;48.972;9.276;2023-07-02T07:11:23;20.00;99.90
1355;DHT22;671;48.972;9.276;2023-07-02T07:13:49;20.10;99.90
1355;DHT22;671;48.972;9.276;2023-07-02T07:16:16;20.10;99.90
1355;DHT22;671;48.972;9.276;2023-07-02T07:18:44;20.20;99.90
1355;DHT22;671;48.972;9.276;2023-07-02T07:21:10;20.20;99.90
1355;DHT22;671;48.972;9.276;2023-07-02T07:23:37;20.20;99.90
1355;DHT22;671;48.972;9.276;2023-07-02T07:26:03;20.20;99.90
1355;DHT22;671;48.972;9.276;2023-07-02T07:28:30;20.30;99.90
1355;DHT22;671;48.972;9.276;2023-07-02T07:30:56;20.40;99.90
1355;DHT22;671;48.972;9.276;2023-07-02T07:33:23;20.40;99.90
1355;DHT22;671;48.972;9.276;2023-07-02T07:35:49;20.50;99.90
1355;DHT22;671;48.972;9.276;2023-07-02T07:38:16;20.50;99.90
1355;DHT22;671;48.972;9.276;2023-07-02T07:40:43;20.60;99.90
1355;DHT22;671;48.972;9.276;2023-07-02T07:43:10;20.80;99.90
1355;DHT22;671;48.972;9.276;2023-07-02T07:45:37;20.90;99.90
1355;DHT22;671;48.972;9.276;2023-07-02T07:48:05;20.90;99.90
1355;DHT22;671;48.972;9.276;2023-07-02T07:50:31;21.00;99.90
1355;DHT22;671;48.972;9.276;2023-07-02T07:52:58;21.10;99.90
1355;DHT22;671;48.972;9.276;2023-07-02T07:55:25;21.20;99.90
1355;DHT22;671;48.972;9.276;2023-07-02T07:57:51;21.30;99.90
1355;DHT22;671;48.972;9.276;2023-07-02T08:00:18;21.40;99.90
1355;DHT22;671;48.972;9.276;2023-07-02T08:02:45;21.50;99.90
1355;DHT22;671;48.972;9.276;2023-07-02T08:05:13;21.40;99.90
1355;DHT22;671;48.972;9.276;2023-07-02T08:07:39;21.40;99.90
1355;DHT22;671;48.972;9.276;2023-07-02T08:10:07;21.50;99.90
1355;DHT22;671;48.972;9.276;2023-07-02T08:12:36;21.70;99.90
1355;DHT22;671;48.972;9.276;2023-07-02T08:15:03;21.80;99.90
1355;DHT22;671;48.972;9.276;2023-07-02T08:17:30;21.90;99.90
1355;DHT22;671;48.972;9.276;2023-07-02T08:19:57;22.00;99.90
1355;DHT22;671;48.972;9.276;2023-07-02T08:22:24;22.30;99.90
1355;DHT22;671;48.972;9.276;2023-07-02T08:24:50;22.60;99.90
1355;DHT22;671;48.972;9.276;2023-07-02T08:27:17;22.80;99.90
1355;DHT22;671;48.972;9.276;2023-07-02T08:29:48;23.00;99.90
1355;DHT22;671;48.972;9.276;2023-07-02T08:32:15;22.90;99.90
1355;DHT22;671;48.972;9.276;2023-07-02T08:34:42;22.90;99.90
1355;DHT22;671;48.972;9.276;2023-07-02T08:37:08;23.00;99.90
1355;DHT22;671;48.972;9.276;2023-07-02T08:39:35;22.80;99.90
1355;DHT22;671;48.972;9.276;2023-07-02T08:42:03;22.60;99.90
1355;DHT22;671;48.972;9.276;2023-07-02T08:44:30;22.50;99.90
1355;DHT22;671;48.972;9.276;2023-07-02T08:46:57;22.40;99.90
1355;DHT22;671;48.972;9.276;2023-07-02T08:49:24;22.40;99.90
1355;DHT22;671;48.972;9.276;2023-07-02T08:51:51;22.40;99.90
1355;DHT22;671;48.972;9.276;2023-07-02T08:54:18;22.30;99.90
1355;DHT22;671;48.972;9.276;2023-07-02T08:56:44;22.30;99.90
1355;DHT22;671;48.972;9.276;2023-07-02T08:59:12;22.50;99.90
1355;DHT22;671;48.972;9.276;2023-07-02T09:04:20;23.10;99.90
1355;DHT22;671;48.972;9.276;2023-07-02T09:07:12;23.20;99.90
1355;DHT22;671;48.972;9.276;2023-07-02T09:09:48;23.20;99.90
1355;DHT22;671;48.972;9.276;2023-07-02T09:12:28;23.30;99.90
1355;DHT22;671;48.972;9.276;2023-07-02T09:14:59;23.50;99.90
1355;DHT22;671;48.972;9.276;2023-07-02T09:17:30;23.60;99.90
1355;DHT22;671;48.972;9.276;2023-07-02T09:19:58;23.50;99.90
1355;DHT22;671;48.972;9.276;2023-07-02T09:22:27;23.40;99.90
1355;DHT22;671;48.972;9.276;2023-07-02T09:24:55;23.40;99.90
1355;DHT22;671;48.972;9.276;2023-07-02T09:27:36;23.30;99.70
1355;DHT22;671;48.972;9.276;2023-07-02T09:32:33;23.00;99.70
1355;DHT22;671;48.972;9.276;2023-07-02T09:35:01;23.10;99.90
1355;DHT22;671;48.972;9.276;2023-07-02T09:37:28;23.40;99.80
1355;DHT22;671;48.972;9.276;2023-07-02T09:39:55;23.70;99.90
1355;DHT22;671;48.972;9.276;2023-07-02T09:42:22;23.70;98.70
1355;DHT22;671;48.972;9.276;2023-07-02T09:44:52;23.70;98.50
1355;DHT22;671;48.972;9.276;2023-07-02T09:47:21;23.40;98.70
1355;DHT22;671;48.972;9.276;2023-07-02T09:49:58;23.50;98.60
1355;DHT22;671;48.972;9.276;2023-07-02T09:52:26;23.50;98.60
1355;DHT22;671;48.972;9.276;2023-07-02T09:54:53;23.50;98.30
1355;DHT22;671;48.972;9.276;2023-07-02T09:57:20;23.40;98.20
1355;DHT22;671;48.972;9.276;2023-07-02T09:59:47;23.30;97.60
1355;DHT22;671;48.972;9.276;2023-07-02T10:02:13;23.00;98.40
1355;DHT22;671;48.972;9.276;2023-07-02T10:04:46;23.10;99.40
1355;DHT22;671;48.972;9.276;2023-07-02T10:07:26;23.40;98.90
1355;DHT22;671;48.972;9.276;2023-07-02T10:09:53;23.60;97.50
1355;DHT22;671;48.972;9.276;2023-07-02T10:12:25;23.80;97.70
1355;DHT22;671;48.972;9.276;2023-07-02T10:14:54;24.00;97.70
1355;DHT22;671;48.972;9.276;2023-07-02T10:19:55;24.30;96.90
1355;DHT22;671;48.972;9.276;2023-07-02T10:22:23;24.40;97.10
1355;DHT22;671;48.972;9.276;2023-07-02T10:24:54;24.70;96.70
1355;DHT22;671;48.972;9.276;2023-07-02T10:27:21;24.70;95.80
1355;DHT22;671;48.972;9.276;2023-07-02T10:29:58;24.90;95.90
1355;DHT22;671;48.972;9.276;2023-07-02T10:32:28;25.10;95.90
1355;DHT22;671;48.972;9.276;2023-07-02T10:34:55;25.30;95.80
1355;DHT22;671;48.972;9.276;2023-07-02T10:37:22;25.40;96.00
1355;DHT22;671;48.972;9.276;2023-07-02T10:39:49;25.60;95.30
1355;DHT22;671;48.972;9.276;2023-07-02T10:42:15;25.60;94.70
1355;DHT22;671;48.972;9.276;2023-07-02T10:44:50;25.70;94.90
1355;DHT22;671;48.972;9.276;2023-07-02T10:47:18;25.90;95.30
1355;DHT22;671;48.972;9.276;2023-07-02T10:49:45;25.60;94.30
1355;DHT22;671;48.972;9.276;2023-07-02T10:52:12;25.50;95.20
1355;DHT22;671;48.972;9.276;2023-07-02T10:54:46;25.50;94.50
1355;DHT22;671;48.972;9.276;2023-07-02T10:57:14;25.50;94.50
1355;DHT22;671;48.972;9.276;2023-07-02T10:59:42;25.60;94.20
1355;DHT22;671;48.972;9.276;2023-07-02T11:02:08;25.20;93.40
1355;DHT22;671;48.972;9.276;2023-07-02T11:04:37;25.30;93.90
1355;DHT22;671;48.972;9.276;2023-07-02T11:07:04;25.40;94.00
1355;DHT22;671;48.972;9.276;2023-07-02T11:09:31;25.70;94.70
1355;DHT22;671;48.972;9.276;2023-07-02T11:12:00;25.90;94.20
1355;DHT22;671;48.972;9.276;2023-07-02T11:14:34;26.10;93.80
1355;DHT22;671;48.972;9.276;2023-07-02T11:17:05;26.30;93.40
1355;DHT22;671;48.972;9.276;2023-07-02T11:19:35;26.50;94.10
1355;DHT22;671;48.972;9.276;2023-07-02T11:22:03;26.70;93.20
1355;DHT22;671;48.972;9.276;2023-07-02T11:24:36;26.60;93.60
1355;DHT22;671;48.972;9.276;2023-07-02T11:27:05;26.50;92.60
1355;DHT22;671;48.972;9.276;2023-07-02T11:29:33;26.30;92.50
1355;DHT22;671;48.972;9.276;2023-07-02T11:32:09;25.80;92.70
1355;DHT22;671;48.972;9.276;2023-07-02T11:34:36;25.90;93.00
1355;DHT22;671;48.972;9.276;2023-07-02T11:37:04;26.10;93.90
1355;DHT22;671;48.972;9.276;2023-07-02T11:39:31;26.20;92.50
1355;DHT22;671;48.972;9.276;2023-07-02T11:41:57;26.30;92.50
1355;DHT22;671;48.972;9.276;2023-07-02T11:44:24;26.30;92.70
1355;DHT22;671;48.972;9.276;2023-07-02T11:46:52;26.40;92.80
1355;DHT22;671;48.972;9.276;2023-07-02T11:49:19;26.70;93.00
1355;DHT22;671;48.972;9.276;2023-07-02T11:51:45;26.90;92.70
1355;DHT22;671;48.972;9.276;2023-07-02T11:54:16;27.10;91.30
1355;DHT22;671;48.972;9.276;2023-07-02T11:56:42;26.90;90.80
1355;DHT22;671;48.972;9.276;2023-07-02T11:59:09;26.60;91.20
1355;DHT22;671;48.972;9.276;2023-07-02T12:01:36;26.30;91.40
1355;DHT22;671;48.972;9.276;2023-07-02T12:04:02;26.40;91.90
1355;DHT22;671;48.972;9.276;2023-07-02T12:06:29;26.30;91.40
1355;DHT22;671;48.972;9.276;2023-07-02T12:08:56;26.10;91.60
1355;DHT22;671;48.972;9.276;2023-07-02T12:11:22;26.20;91.90
1355;DHT22;671;48.972;9.276;2023-07-02T12:13:48;25.90;90.70
1355;DHT22;671;48.972;9.276;2023-07-02T12:16:15;25.70;91.50
1355;DHT22;671;48.972;9.276;2023-07-02T12:18:41;26.00;91.30
1355;DHT22;671;48.972;9.276;2023-07-02T12:21:08;26.20;89.70
1355;DHT22;671;48.972;9.276;2023-07-02T12:23:34;26.10;90.40
1355;DHT22;671;48.972;9.276;2023-07-02T12:26:01;26.10;90.90
1355;DHT22;671;48.972;9.276;2023-07-02T12:28:27;25.90;91.50
1355;DHT22;671;48.972;9.276;2023-07-02T12:30:54;25.90;91.50
1355;DHT22;671;48.972;9.276;2023-07-02T12:33:20;25.90;90.40
1355;DHT22;671;48.972;9.276;2023-07-02T12:35:47;26.10;91.30
1355;DHT22;671;48.972;9.276;2023-07-02T12:38:13;26.00;91.30
1355;DHT22;671;48.972;9.276;2023-07-02T12:40:40;26.00;90.90
1355;DHT22;671;48.972;9.276;2023-07-02T12:43:07;26.20;90.90
1355;DHT22;671;48.972;9.276;2023-07-02T12:45:33;26.40;90.90
1355;DHT22;671;48.972;9.276;2023-07-02T12:48:00;26.50;90.40
1355;DHT22;671;48.972;9.276;2023-07-02T12:50:26;26.60;90.10
1355;DHT22;671;48.972;9.276;2023-07-02T12:52:53;26.60;89.30
1355;DHT22;671;48.972;9.276;2023-07-02T12:55:19;26.70;89.20
1355;DHT22;671;48.972;9.276;2023-07-02T12:57:46;26.90;87.90
1355;DHT22;671;48.972;9.276;2023-07-02T13:00:12;27.00;87.10
1355;DHT22;671;48.972;9.276;2023-07-02T13:02:39;26.80;85.20
1355;DHT22;671;48.972;9.276;2023-07-02T13:05:06;26.60;85.30
1355;DHT22;671;48.972;9.276;2023-07-02T13:07:32;26.50;86.80
1355;DHT22;671;48.972;9.276;2023-07-02T13:09:59;26.70;87.00
1355;DHT22;671;48.972;9.276;2023-07-02T13:12:25;26.80;86.00
1355;DHT22;671;48.972;9.276;2023-07-02T13:14:52;27.00;86.60
1355;DHT22;671;48.972;9.276;2023-07-02T13:17:18;27.00;86.70
1355;DHT22;671;48.972;9.276;2023-07-02T13:19:45;27.00;85.00
1355;DHT22;671;48.972;9.276;2023-07-02T13:22:11;26.80;82.50
1355;DHT22;671;48.972;9.276;2023-07-02T13:24:38;26.80;83.20
1355;DHT22;671;48.972;9.276;2023-07-02T13:27:15;26.90;83.50
1355;DHT22;671;48.972;9.276;2023-07-02T13:29:43;27.10;83.70
1355;DHT22;671;48.972;9.276;2023-07-02T13:32:09;27.00;81.30
1355;DHT22;671;48.972;9.276;2023-07-02T13:34:37;27.20;81.40
1355;DHT22;671;48.972;9.276;2023-07-02T13:37:04;27.40;82.60
1355;DHT22;671;48.972;9.276;2023-07-02T13:39:31;27.50;81.80
1355;DHT22;671;48.972;9.276;2023-07-02T13:41:57;27.50;82.70
1355;DHT22;671;48.972;9.276;2023-07-02T13:44:24;27.70;80.80
1355;DHT22;671;48.972;9.276;2023-07-02T13:46:50;27.80;80.80
1355;DHT22;671;48.972;9.276;2023-07-02T13:49:17;27.90;79.30
1355;DHT22;671;48.972;9.276;2023-07-02T13:51:43;27.90;78.20
1355;DHT22;671;48.972;9.276;2023-07-02T13:54:12;27.80;79.10
1355;DHT22;671;48.972;9.276;2023-07-02T13:56:40;27.40;78.10
1355;DHT22;671;48.972;9.276;2023-07-02T13:59:07;27.00;77.80
1355;DHT22;671;48.972;9.276;2023-07-02T14:01:34;27.10;78.90
1355;DHT22;671;48.972;9.276;2023-07-02T14:04:01;27.10;80.00
1355;DHT22;671;48.972;9.276;2023-07-02T14:06:28;27.10;78.60
1355;DHT22;671;48.972;9.276;2023-07-02T14:08:55;27.30;78.70
1355;DHT22;671;48.972;9.276;2023-07-02T14:11:23;27.20;77.50
1355;DHT22;671;48.972;9.276;2023-07-02T14:13:49;27.30;78.30
1355;DHT22;671;48.972;9.276;2023-07-02T14:16:16;27.20;75.40
1355;DHT22;671;48.972;9.276;2023-07-02T14:18:43;27.20;78.00
1355;DHT22;671;48.972;9.276;2023-07-02T14:21:09;27.30;78.00
1355;DHT22;671;48.972;9.276;2023-07-02T14:23:36;27.30;76.60
1355;DHT22;671;48.972;9.276;2023-07-02T14:26:02;27.20;75.80
1355;DHT22;671;48.972;9.276;2023-07-02T14:28:29;27.00;75.10
1355;DHT22;671;48.972;9.276;2023-07-02T14:30:57;26.90;74.90
1355;DHT22;671;48.972;9.276;2023-07-02T14:33:24;27.00;77.90
1355;DHT22;671;48.972;9.276;2023-07-02T14:35:51;27.00;75.80
1355;DHT22;671;48.972;9.276;2023-07-02T14:38:17;27.00;75.90
1355;DHT22;671;48.972;9.276;2023-07-02T14:40:44;27.00;75.80
1355;DHT22;671;48.972;9.276;2023-07-02T14:43:11;27.00;74.80
1355;DHT22;671;48.972;9.276;2023-07-02T14:45:44;27.00;77.10
1355;DHT22;671;48.972;9.276;2023-07-02T14:48:12;27.00;76.90
1355;DHT22;671;48.972;9.276;2023-07-02T14:50:44;27.10;76.80
1355;DHT22;671;48.972;9.276;2023-07-02T14:53:11;27.20;75.90
1355;DHT22;671;48.972;9.276;2023-07-02T14:55:37;27.20;76.70
1355;DHT22;671;48.972;9.276;2023-07-02T14:58:05;27.30;76.40
1355;DHT22;671;48.972;9.276;2023-07-02T15:00:31;27.30;77.40
1355;DHT22;671;48.972;9.276;2023-07-02T15:02:58;27.20;75.50
1355;DHT22;671;48.972;9.276;2023-07-02T15:05:25;27.30;75.50
1355;DHT22;671;48.972;9.276;2023-07-02T15:07:51;27.20;75.30
1355;DHT22;671;48.972;9.276;2023-07-02T15:10:18;27.30;75.60
1355;DHT22;671;48.972;9.276;2023-07-02T15:12:44;27.50;76.60
1355;DHT22;671;48.972;9.276;2023-07-02T15:15:13;27.50;74.20
1355;DHT22;671;48.972;9.276;2023-07-02T15:17:40;27.50;74.50
1355;DHT22;671;48.972;9.276;2023-07-02T15:20:07;27.40;74.30
1355;DHT22;671;48.972;9.276;2023-07-02T15:22:33;27.30;75.50
1355;DHT22;671;48.972;9.276;2023-07-02T15:25:00;27.40;76.40
1355;DHT22;671;48.972;9.276;2023-07-02T15:27:26;27.40;74.30
1355;DHT22;671;48.972;9.276;2023-07-02T15:29:53;27.30;73.00
1355;DHT22;671;48.972;9.276;2023-07-02T15:32:19;27.30;75.40
1355;DHT22;671;48.972;9.276;2023-07-02T15:34:46;27.30;74.00
1355;DHT22;671;48.972;9.276;2023-07-02T15:37:12;27.30;72.70
1355;DHT22;671;48.972;9.276;2023-07-02T15:39:39;27.20;74.50
1355;DHT22;671;48.972;9.276;2023-07-02T15:42:06;27.30;74.30
1355;DHT22;671;48.972;9.276;2023-07-02T15:44:32;27.30;74.50
1355;DHT22;671;48.972;9.276;2023-07-02T15:46:59;27.40;75.20
1355;DHT22;671;48.972;9.276;2023-07-02T15:49:25;27.40;74.00
1355;DHT22;671;48.972;9.276;2023-07-02T15:51:52;27.50;74.80
1355;DHT22;671;48.972;9.276;2023-07-02T15:54:18;27.50;73.90
1355;DHT22;671;48.972;9.276;2023-07-02T15:56:45;27.30;74.90
1355;DHT22;671;48.972;9.276;2023-07-02T15:59:11;27.10;73.90
1355;DHT22;671;48.972;9.276;2023-07-02T16:01:38;26.90;73.40
1355;DHT22;671;48.972;9.276;2023-07-02T16:04:06;27.00;74.70
1355;DHT22;671;48.972;9.276;2023-07-02T16:06:35;27.10;74.50
1355;DHT22;671;48.972;9.276;2023-07-02T16:09:02;27.20;72.90
1355;DHT22;671;48.972;9.276;2023-07-02T16:11:29;27.10;72.60
1355;DHT22;671;48.972;9.276;2023-07-02T16:14:00;27.20;74.10
1355;DHT22;671;48.972;9.276;2023-07-02T16:16:32;27.30;74.70
1355;DHT22;671;48.972;9.276;2023-07-02T16:19:00;27.40;73.40
1355;DHT22;671;48.972;9.276;2023-07-02T16:21:27;27.40;72.40
1355;DHT22;671;48.972;9.276;2023-07-02T16:23:53;27.30;72.50
1355;DHT22;671;48.972;9.276;2023-07-02T16:26:20;27.20;73.40
1355;DHT22;671;48.972;9.276;2023-07-02T16:28:46;27.10;73.10
1355;DHT22;671;48.972;9.276;2023-07-02T16:31:12;27.00;72.90